Time;durP1;ratioP1;P1;durP2;ratioP2;P2;SDS_P1;SDS_P2;PMS_P1;PMS_P2;Temp;Humidity;BMP_temperature;BMP_pressure;BME280_temperature;BME280_humidity;BME280_pressure;Samples;Min_cycle;Max_cycle;Signal;HPM_P1;HPM_P2
2022/11/18 00:01:56;;;;;;;9.25;3.85;;;;;;;7.11;100.00;99433.28;5023783;28;20029;-70
2022/11/18 00:04:21;;;;;;;7.10;3.80;;;;;;;7.11;100.00;99430.53;5023761;28;20037;-71
2022/11/18 00:06:47;;;;;;;10.07;4.20;;;;;;;7.08;100.00;99425.56;5025791;28;20065;-70
2022/11/18 00:09:12;;;;;;;7.88;3.95;;;;;;;7.08;100.00;99424.72;5025691;28;20026;-70
2022/11/18 00:14:26;;;;;;;8.65;3.40;;;;;;;7.06;100.00;99419.53;5024776;28;20495;-70
2022/11/18 00:16:57;;;;;;;8.32;3.80;;;;;;;7.01;100.00;99428.44;5026921;28;20052;-69
2022/11/18 00:19:25;;;;;;;9.77;4.18;;;;;;;6.99;100.00;99437.94;5022308;28;20026;-71
2022/11/18 00:21:51;;;;;;;9.98;3.95;;;;;;;6.96;100.00;99438.44;5024018;28;20487;-70
2022/11/18 00:24:16;;;;;;;7.70;4.22;;;;;;;6.94;100.00;99441.38;5024691;28;20029;-70
2022/11/18 00:26:42;;;;;;;9.07;3.88;;;;;;;6.93;100.00;99445.19;5025387;28;20053;-70
2022/11/18 00:29:11;;;;;;;8.00;3.70;;;;;;;6.92;100.00;99443.53;5025943;28;20061;-70
2022/11/18 00:31:37;;;;;;;10.23;3.95;;;;;;;6.91;100.00;99446.50;5025291;28;20044;-70
2022/11/18 00:34:02;;;;;;;9.30;4.13;;;;;;;6.91;100.00;99452.78;5024132;28;20790;-70
2022/11/18 00:36:28;;;;;;;7.95;4.25;;;;;;;6.87;100.00;99459.78;5024740;28;20671;-70
2022/11/18 00:38:53;;;;;;;8.57;3.90;;;;;;;6.85;100.00;99461.13;5025378;28;20125;-70
2022/11/18 00:41:19;;;;;;;7.20;3.80;;;;;;;6.88;100.00;99452.44;5023688;28;20420;-70
2022/11/18 00:43:45;;;;;;;10.68;4.32;;;;;;;6.89;100.00;99459.53;5024278;28;20480;-70
2022/11/18 00:46:11;;;;;;;7.82;4.03;;;;;;;6.93;100.00;99464.28;5026277;28;20092;-71
2022/11/18 00:48:37;;;;;;;11.32;4.18;;;;;;;6.96;100.00;99469.28;5025316;28;20032;-70
2022/11/18 00:51:15;;;;;;;9.68;4.05;;;;;;;7.00;100.00;99475.09;5016580;28;20120;-70
2022/11/18 00:53:41;;;;;;;11.00;4.20;;;;;;;7.02;100.00;99470.22;5024360;28;20047;-70
2022/11/18 00:56:07;;;;;;;10.40;4.32;;;;;;;7.03;100.00;99469.97;5026099;28;20108;-70
2022/11/18 00:58:33;;;;;;;10.15;4.53;;;;;;;7.07;100.00;99483.97;5025173;28;20570;-70
2022/11/18 01:00:58;;;;;;;10.57;4.82;;;;;;;7.08;100.00;99480.16;5024858;28;20080;-70
2022/11/18 01:03:24;;;;;;;8.32;4.32;;;;;;;7.11;100.00;99482.41;5024678;28;20033;-70
2022/11/18 01:05:50;;;;;;;9.07;4.20;;;;;;;7.14;100.00;99490.09;5025209;28;20077;-70
2022/11/18 01:08:17;;;;;;;10.25;4.07;;;;;;;7.15;100.00;99491.78;5023450;28;20572;-70
2022/11/18 01:10:43;;;;;;;9.20;4.00;;;;;;;7.18;100.00;99494.03;5024277;28;20037;-70
2022/11/18 01:13:19;;;;;;;7.43;3.85;;;;;;;7.20;100.00;99497.34;5024665;28;20398;-70
2022/11/18 01:15:55;;;;;;;10.43;3.95;;;;;;;7.24;100.00;99506.69;5023395;28;20084;-70
2022/11/18 01:18:24;;;;;;;8.48;3.90;;;;;;;7.24;100.00;99506.69;5025440;28;20025;-70
2022/11/18 01:20:50;;;;;;;8.00;4.57;;;;;;;7.33;100.00;99514.53;5024105;28;20729;-71
2022/11/18 01:23:16;;;;;;;10.23;4.22;;;;;;;7.34;100.00;99505.25;5024286;28;20025;-70
2022/11/18 01:25:43;;;;;;;8.20;3.85;;;;;;;7.35;100.00;99515.09;5023371;28;20057;-70
2022/11/18 01:28:09;;;;;;;9.13;4.05;;;;;;;7.38;100.00;99517.34;5024909;28;20048;-70
2022/11/18 01:30:36;;;;;;;9.65;4.10;;;;;;;7.39;100.00;99516.28;5024864;28;20064;-70
2022/11/18 01:33:03;;;;;;;9.27;4.30;;;;;;;7.40;100.00;99517.94;5022323;28;20116;-70
2022/11/18 01:35:39;;;;;;;10.48;3.97;;;;;;;7.41;100.00;99525.91;5028281;28;20393;-70
2022/11/18 01:38:05;;;;;;;9.57;4.70;;;;;;;7.42;100.00;99530.28;5013434;28;20368;-70
2022/11/18 01:40:31;;;;;;;8.27;3.75;;;;;;;7.44;100.00;99535.50;5026878;28;20493;-70
2022/11/18 01:42:57;;;;;;;8.80;4.00;;;;;;;7.45;100.00;99538.00;5027570;28;20088;-70
2022/11/18 01:45:32;;;;;;;6.95;3.63;;;;;;;7.47;100.00;99545.97;5028197;28;20021;-71
2022/11/18 01:48:07;;;;;;;8.75;3.78;;;;;;;7.49;100.00;99538.34;5027879;28;20060;-70
2022/11/18 01:50:35;;;;;;;9.07;3.50;;;;;;;7.52;100.00;99548.78;5025129;28;20092;-70
2022/11/18 01:53:06;;;;;;;9.05;4.05;;;;;;;7.53;100.00;99539.53;5016559;28;20038;-70
2022/11/18 01:55:36;;;;;;;8.60;3.67;;;;;;;7.53;100.00;99550.44;5027767;28;20044;-70
2022/11/18 01:58:26;;;;;;;10.77;3.65;;;;;;;7.54;100.00;99550.19;5027683;28;20109;-70
2022/11/18 02:00:52;;;;;;;8.02;4.00;;;;;;;7.52;100.00;99551.53;5026881;28;20060;-71
2022/11/18 02:03:17;;;;;;;7.22;3.63;;;;;;;7.54;100.00;99552.09;5028102;28;20061;-70
2022/11/18 02:05:46;;;;;;;6.85;4.38;;;;;;;7.52;100.00;99554.25;5027071;28;20087;-71
2022/11/18 02:08:13;;;;;;;9.02;3.92;;;;;;;7.50;100.00;99557.25;5050521;22;20061;-68
2022/11/18 02:10:38;;;;;;;7.65;3.78;;;;;;;7.52;100.00;99559.72;5006086;28;20049;-70
2022/11/18 02:13:04;;;;;;;12.63;4.70;;;;;;;7.52;100.00;99562.44;5008054;28;20041;-70
2022/11/18 02:16:10;;;;;;;10.95;4.00;;;;;;;7.56;100.00;99560.06;5007417;28;20467;-70
2022/11/18 02:18:54;;;;;;;8.82;3.88;;;;;;;7.56;100.00;99563.63;4995508;28;20034;-70
2022/11/18 02:21:38;;;;;;;8.18;4.03;;;;;;;7.57;100.00;99567.19;5005929;28;20026;-70
2022/11/18 02:24:37;;;;;;;8.63;3.75;;;;;;;7.54;100.00;99569.31;5006592;28;20105;-70
2022/11/18 02:27:24;;;;;;;8.57;4.25;;;;;;;7.57;100.00;99575.38;5007163;28;20132;-70
2022/11/18 02:29:57;;;;;;;7.22;3.83;;;;;;;7.59;100.00;99573.22;5006581;28;20075;-70
2022/11/18 02:32:28;;;;;;;8.52;3.97;;;;;;;7.60;100.00;99575.72;5007074;28;20368;-71
2022/11/18 02:35:09;;;;;;;9.25;4.35;;;;;;;7.64;100.00;99584.25;5008055;28;20026;-70
2022/11/18 02:37:53;;;;;;;9.93;4.20;;;;;;;7.64;100.00;99582.34;5004282;28;20064;-70
2022/11/18 02:40:26;;;;;;;10.02;3.78;;;;;;;7.64;100.00;99582.34;5006485;28;20037;-70
2022/11/18 02:43:01;;;;;;;8.10;4.47;;;;;;;7.66;100.00;99588.44;5006747;28;20061;-70
2022/11/18 02:45:28;;;;;;;10.82;3.90;;;;;;;7.67;100.00;99595.56;5007282;28;20068;-70
2022/11/18 02:47:56;;;;;;;6.50;3.80;;;;;;;7.67;100.00;99595.56;5007024;28;20040;-70
2022/11/18 02:50:24;;;;;;;9.32;4.20;;;;;;;7.66;100.00;99588.44;5006791;28;20185;-70
2022/11/18 02:52:56;;;;;;;9.55;3.80;;;;;;;7.68;100.00;99591.75;5006206;28;20029;-69
2022/11/18 02:55:24;;;;;;;12.60;4.22;;;;;;;7.70;100.00;99589.59;5007643;28;20037;-70
2022/11/18 02:57:51;;;;;;;8.80;4.90;;;;;;;7.71;100.00;99596.72;5007023;28;20037;-69
2022/11/18 03:00:16;;;;;;;9.73;3.90;;;;;;;7.72;100.00;99592.91;5008285;28;20034;-70
2022/11/18 03:02:44;;;;;;;9.50;3.60;;;;;;;7.71;100.00;99594.00;5004819;28;20037;-69
2022/11/18 03:05:47;;;;;;;7.07;3.70;;;;;;;7.74;100.00;99596.22;5004246;28;20046;-70
2022/11/18 03:08:19;;;;;;;7.35;3.90;;;;;;;7.73;100.00;99600.03;4939959;28;20050;-70
2022/11/18 03:10:51;;;;;;;8.52;4.00;;;;;;;7.76;100.00;99607.75;5005690;28;20034;-69
2022/11/18 03:13:26;;;;;;;9.50;3.80;;;;;;;7.79;100.00;99615.47;5005283;28;20030;-70
2022/11/18 03:16:03;;;;;;;8.77;3.80;;;;;;;7.80;100.00;99614.38;5005084;28;20038;-70
2022/11/18 03:18:38;;;;;;;10.18;4.30;;;;;;;7.83;100.00;99615.81;4992630;28;20092;-69
2022/11/18 03:21:12;;;;;;;9.25;3.83;;;;;;;7.86;100.00;99615.34;5005206;28;20033;-69
2022/11/18 03:23:40;;;;;;;8.40;4.07;;;;;;;7.87;100.00;99614.25;5004251;28;21117;-69
2022/11/18 03:26:16;;;;;;;;;;;;;;;7.91;100.00;99620.91;5004820;28;20057;-70
2022/11/18 03:29:03;;;;;;;8.63;4.50;;;;;;;7.91;100.00;99622.81;5007004;28;19928;-69
2022/11/18 03:31:36;;;;;;;7.28;4.38;;;;;;;7.93;100.00;99631.59;4991346;28;20511;-70
2022/11/18 03:34:12;;;;;;;9.32;4.20;;;;;;;7.95;100.00;99626.69;5004800;28;20057;-70
2022/11/18 03:36:43;;;;;;;7.47;3.80;;;;;;;7.97;100.00;99632.78;5003888;28;20094;-70
2022/11/18 03:39:12;;;;;;;6.47;4.10;;;;;;;7.99;100.00;99631.44;5005652;28;20040;-70
2022/11/18 03:41:44;;;;;;;10.32;4.10;;;;;;;8.01;100.00;99642.16;4999224;28;20373;-70
2022/11/18 03:44:15;;;;;;;9.63;3.95;;;;;;;8.03;100.00;99642.72;5006278;28;20064;-70
2022/11/18 03:46:46;;;;;;;8.82;4.10;;;;;;;8.03;100.00;99637.25;5006944;28;20042;-70
2022/11/18 03:49:19;;;;;;;8.68;4.03;;;;;;;8.05;100.00;99651.50;5005193;28;20999;-70
2022/11/18 03:51:50;;;;;;;9.20;3.80;;;;;;;8.03;100.00;99654.50;5005166;28;20350;-70
2022/11/18 03:54:20;;;;;;;9.02;3.72;;;;;;;8.04;100.00;99649.84;5005379;28;20032;-70
2022/11/18 03:56:57;;;;;;;8.57;3.80;;;;;;;8.06;100.00;99653.19;5005680;28;20033;-69
2022/11/18 03:59:27;;;;;;;9.88;3.75;;;;;;;8.06;100.00;99658.66;4991308;28;20038;-70
2022/11/18 04:02:02;;;;;;;9.73;3.85;;;;;;;8.05;100.00;99667.91;5005325;28;20038;-70
2022/11/18 04:04:28;;;;;;;9.00;3.67;;;;;;;8.06;100.00;99669.59;5005703;28;20038;-70
2022/11/18 04:07:08;;;;;;;7.28;3.70;;;;;;;8.06;100.00;99673.16;5004604;28;20057;-71
2022/11/18 04:09:41;;;;;;;9.10;3.83;;;;;;;8.06;100.00;99675.91;4993885;28;20033;-70
2022/11/18 04:12:12;;;;;;;10.38;3.88;;;;;;;8.06;100.00;99681.38;4989495;28;20108;-70
2022/11/18 04:14:41;;;;;;;10.75;3.63;;;;;;;8.05;100.00;99684.31;5001203;28;20049;-70
2022/11/18 04:17:09;;;;;;;9.90;4.03;;;;;;;8.04;100.00;99678.03;4997170;28;20543;-70
2022/11/18 04:19:35;;;;;;;7.07;3.55;;;;;;;8.05;100.00;99685.16;4998563;28;20438;-69
2022/11/18 04:22:00;;;;;;;7.57;3.67;;;;;;;8.05;100.00;99682.41;5009480;28;20030;-70
2022/11/18 04:24:25;;;;;;;9.73;3.80;;;;;;;8.06;100.00;99691.47;4985821;28;20577;-70
2022/11/18 04:26:51;;;;;;;7.18;4.05;;;;;;;8.05;100.00;99696.09;4992822;28;20061;-70
2022/11/18 04:29:16;;;;;;;8.20;3.50;;;;;;;8.02;100.00;99702.06;4997336;28;20065;-70
2022/11/18 04:31:41;;;;;;;10.40;3.70;;;;;;;8.02;100.00;99699.31;4999471;28;20065;-70
2022/11/18 04:34:07;;;;;;;9.00;4.10;;;;;;;7.98;100.00;99705.50;4992490;28;20138;-69
2022/11/18 04:36:32;;;;;;;9.13;3.67;;;;;;;7.97;100.00;99698.38;5000641;28;20452;-70
2022/11/18 04:38:57;;;;;;;9.32;4.53;;;;;;;7.93;100.00;99710.88;4996463;28;20633;-70
2022/11/18 04:41:54;;;;;;;12.35;3.67;;;;;;;7.90;100.00;99712.16;4998847;28;20034;-70
2022/11/18 04:44:11;;;;;;;8.32;3.70;;;;;;;7.88;100.00;99710.75;4999239;28;20080;-70
2022/11/18 04:46:41;;;;;;;9.45;3.90;;;;;;;7.83;100.00;99719.69;4994889;28;20038;-70
2022/11/18 04:49:07;;;;;;;8.98;4.22;;;;;;;7.79;100.00;99718.50;5005471;28;20088;-70
2022/11/18 04:51:33;;;;;;;7.97;4.75;;;;;;;7.77;100.00;99721.47;5003849;28;20018;-70
2022/11/18 04:53:58;;;;;;;9.48;4.57;;;;;;;7.76;100.00;99719.81;4999864;28;20030;-70
2022/11/18 04:56:23;;;;;;;11.18;4.50;;;;;;;7.70;100.00;99728.13;5003588;28;20048;-71
2022/11/18 04:58:49;;;;;;;9.63;3.83;;;;;;;7.66;100.00;99727.81;4994459;28;20033;-70
2022/11/18 05:01:14;;;;;;;9.13;4.22;;;;;;;7.62;100.00;99734.81;4997458;28;20022;-70
2022/11/18 05:03:39;;;;;;;9.15;3.88;;;;;;;7.62;100.00;99732.06;4995185;28;20072;-70
2022/11/18 05:06:05;;;;;;;8.18;4.10;;;;;;;7.60;100.00;99742.38;4998607;28;20038;-70
2022/11/18 05:08:30;;;;;;;8.57;4.05;;;;;;;7.57;100.00;99748.34;5006783;28;20416;-70
2022/11/18 05:12:47;;;;;;;10.43;4.05;;;;;;;7.52;100.00;99740.03;5003923;28;20046;-70
2022/11/18 05:13:41;;;;;;;7.78;4.00;;;;;;;7.45;100.00;99750.22;4999591;28;20397;-70
2022/11/18 05:16:07;;;;;;;9.40;4.15;;;;;;;7.42;100.00;99761.66;4995078;28;20050;-69
2022/11/18 05:18:32;;;;;;;10.63;4.57;;;;;;;7.38;100.00;99755.81;4991181;28;20109;-70
2022/11/18 05:20:57;;;;;;;9.02;4.70;;;;;;;7.35;100.00;99761.78;5003370;28;20045;-70
2022/11/18 05:23:23;;;;;;;6.85;4.32;;;;;;;7.30;100.00;99764.38;5008893;28;20042;-70
2022/11/18 05:25:48;;;;;;;8.82;5.18;;;;;;;7.26;100.00;99761.28;5009390;28;20057;-70
2022/11/18 05:28:14;;;;;;;10.13;4.88;;;;;;;7.25;100.00;99769.72;5008596;28;20075;-70
2022/11/18 05:30:39;;;;;;;11.77;5.70;;;;;;;7.20;100.00;99769.59;5007216;28;20072;-69
2022/11/18 05:33:04;;;;;;;10.60;4.28;;;;;;;7.14;100.00;99771.34;5008503;28;20034;-70
2022/11/18 05:35:29;;;;;;;11.40;5.22;;;;;;;7.10;100.00;99772.91;5023025;28;20389;-70
2022/11/18 05:37:55;;;;;;;8.27;4.53;;;;;;;7.08;100.00;99777.75;5008358;28;20022;-69
2022/11/18 05:40:20;;;;;;;9.23;4.53;;;;;;;7.05;100.00;99780.97;5007018;28;20904;-70
2022/11/18 05:45:29;;;;;;;9.45;4.60;;;;;;;6.98;100.00;99782.94;5008853;28;20056;-70
2022/11/18 05:48:00;;;;;;;8.05;4.30;;;;;;;6.94;100.00;99787.19;5009918;28;20397;-70
2022/11/18 05:50:25;;;;;;;10.45;5.25;;;;;;;6.92;100.00;99789.34;5008056;28;20034;-70
2022/11/18 05:52:51;;;;;;;9.52;4.78;;;;;;;6.87;100.00;99787.31;5009853;28;20041;-70
2022/11/18 05:55:18;;;;;;;10.18;4.95;;;;;;;6.86;100.00;99795.75;5009064;28;20022;-70
2022/11/18 05:57:44;;;;;;;10.45;5.82;;;;;;;6.84;100.00;99787.75;5009271;28;20496;-69
2022/11/18 06:00:10;;;;;;;10.32;5.47;;;;;;;6.84;100.00;99795.13;5009295;28;20029;-70
2022/11/18 06:02:36;;;;;;;11.13;5.97;;;;;;;6.82;100.00;99799.97;5009804;28;20553;-70
2022/11/18 06:05:03;;;;;;;10.20;5.30;;;;;;;6.78;100.00;99793.31;5029544;28;20025;-70
2022/11/18 06:07:38;;;;;;;10.32;5.75;;;;;;;6.78;100.00;99802.34;5026776;28;20131;-70
2022/11/18 06:10:04;;;;;;;13.10;5.60;;;;;;;6.75;100.00;99811.84;5008765;28;20088;-70
2022/11/18 06:12:35;;;;;;;11.55;5.65;;;;;;;6.74;100.00;99814.78;5008409;28;20026;-70
2022/11/18 06:15:24;;;;;;;10.95;5.50;;;;;;;6.72;100.00;99812.28;5007273;28;20085;-70
2022/11/18 06:17:58;;;;;;;8.13;5.10;;;;;;;6.73;100.00;99830.31;5006135;28;20053;-70
2022/11/18 06:20:25;;;;;;;10.27;5.35;;;;;;;6.71;100.00;99827.00;5006638;28;20373;-70
2022/11/18 06:22:53;;;;;;;10.90;5.68;;;;;;;6.72;100.00;99828.66;5009104;28;20034;-70
2022/11/18 06:25:19;;;;;;;10.68;5.68;;;;;;;6.72;100.00;99831.38;5008758;28;20508;-70
2022/11/18 06:27:45;;;;;;;10.15;5.72;;;;;;;6.70;100.00;99836.25;5008946;28;20096;-70
2022/11/18 06:30:11;;;;;;;11.80;5.15;;;;;;;6.71;100.00;99837.09;5009118;28;20072;-70
2022/11/18 06:32:36;;;;;;;12.95;5.80;;;;;;;6.66;100.00;99843.22;5006910;28;20030;-69
2022/11/18 06:35:02;;;;;;;9.68;5.63;;;;;;;6.65;100.00;99844.28;5004359;28;20022;-70
2022/11/18 06:37:27;;;;;;;10.23;5.57;;;;;;;6.63;100.00;99851.84;5007084;28;20042;-69
2022/11/18 06:39:53;;;;;;;12.25;5.72;;;;;;;6.62;100.00;99852.09;5009538;28;20034;-69
2022/11/18 06:45:03;;;;;;;9.98;5.72;;;;;;;6.58;100.00;99856.34;5008547;28;20044;-70
2022/11/18 06:47:28;;;;;;;10.65;5.47;;;;;;;6.62;100.00;99852.94;5008341;28;20056;-69
2022/11/18 06:49:54;;;;;;;9.07;5.15;;;;;;;6.61;100.00;99866.81;5009110;28;20528;-69
2022/11/18 06:52:21;;;;;;;11.63;5.53;;;;;;;6.58;100.00;99870.81;5005653;28;20026;-69
2022/11/18 06:54:46;;;;;;;9.57;5.32;;;;;;;6.58;100.00;99876.25;5006625;28;20049;-69
2022/11/18 06:57:11;;;;;;;11.25;5.88;;;;;;;6.56;100.00;99878.41;5008255;28;20025;-70
2022/11/18 06:59:36;;;;;;;8.68;5.50;;;;;;;6.57;100.00;99882.78;5008265;28;20725;-70
2022/11/18 07:02:02;;;;;;;10.32;5.82;;;;;;;6.59;100.00;99891.59;5008696;28;20025;-69
2022/11/18 07:04:27;;;;;;;9.68;5.55;;;;;;;6.58;100.00;99897.25;5006741;28;20358;-70
2022/11/18 07:06:52;;;;;;;12.50;5.65;;;;;;;6.59;100.00;99897.06;5007454;28;20049;-69
2022/11/18 07:09:17;;;;;;;12.63;6.15;;;;;;;6.59;100.00;99894.31;5006614;28;20508;-70
2022/11/18 07:11:43;;;;;;;9.00;5.85;;;;;;;6.61;100.00;99900.38;5008329;28;20180;-70
2022/11/18 07:14:08;;;;;;;11.80;6.13;;;;;;;6.62;100.00;99912.94;5008863;28;20025;-69
2022/11/18 07:16:35;;;;;;;12.23;5.80;;;;;;;6.62;100.00;99915.69;5005835;28;20688;-70
2022/11/18 07:19:01;;;;;;;13.70;6.40;;;;;;;6.66;100.00;99911.44;5008088;28;20041;-70
2022/11/18 07:21:28;;;;;;;11.90;6.68;;;;;;;6.66;100.00;99911.44;4993215;28;20551;-70
2022/11/18 07:23:54;;;;;;;13.07;6.65;;;;;;;6.67;100.00;99907.63;4988689;28;20035;-69
2022/11/18 07:26:20;;;;;;;12.07;6.95;;;;;;;6.70;100.00;99920.84;5002592;28;20429;-70
2022/11/18 07:28:46;;;;;;;11.27;6.63;;;;;;;6.71;100.00;99918.94;5007210;28;20396;-70
2022/11/18 07:31:14;;;;;;;9.35;6.10;;;;;;;6.73;100.00;99927.72;5002104;28;20038;-71
2022/11/18 07:33:40;;;;;;;11.20;6.45;;;;;;;6.77;100.00;99928.94;5006672;28;20037;-70
2022/11/18 07:36:15;;;;;;;10.00;6.13;;;;;;;6.80;100.00;99935.84;5002107;28;20060;-69
2022/11/18 07:38:40;;;;;;;14.20;6.57;;;;;;;6.84;100.00;99937.03;4998197;28;20154;-69
2022/11/18 07:41:12;;;;;;;10.45;6.00;;;;;;;6.87;100.00;99939.31;4985620;28;20038;-69
2022/11/18 07:43:38;;;;;;;13.00;6.35;;;;;;;6.87;100.00;99942.88;4989187;28;20338;-70
2022/11/18 07:46:19;;;;;;;9.60;6.50;;;;;;;6.92;100.00;99950.38;4988213;28;20028;-70
2022/11/18 07:48:46;;;;;;;11.68;6.57;;;;;;;6.92;100.00;99953.13;4987007;28;20041;-70
2022/11/18 07:51:13;;;;;;;11.18;6.28;;;;;;;6.91;100.00;99949.56;4982704;28;20022;-70
2022/11/18 07:53:39;;;;;;;10.88;5.90;;;;;;;6.90;100.00;99947.91;4992923;28;20037;-70
2022/11/18 07:56:05;;;;;;;12.10;6.00;;;;;;;6.90;100.00;99952.53;4988865;28;20113;-69
2022/11/18 07:58:30;;;;;;;11.07;5.72;;;;;;;6.89;100.00;99959.03;4991232;28;20035;-70
2022/11/18 08:00:56;;;;;;;9.80;5.82;;;;;;;6.90;100.00;99963.44;4990398;28;20038;-70
2022/11/18 08:03:26;;;;;;;8.60;5.78;;;;;;;6.94;100.00;99967.34;4986544;28;20033;-70
2022/11/18 08:05:52;;;;;;;12.45;5.32;;;;;;;7.06;100.00;99965.53;4989250;28;20077;-70
2022/11/18 08:08:17;;;;;;;10.20;5.85;;;;;;;7.15;100.00;99964.16;4986212;28;20531;-70
2022/11/18 08:10:42;;;;;;;11.30;6.20;;;;;;;7.24;100.00;99972.84;4985958;28;20037;-70
2022/11/18 08:13:07;;;;;;;9.35;5.47;;;;;;;7.33;100.00;99976.13;4987551;28;20025;-69
2022/11/18 08:15:33;;;;;;;11.05;5.68;;;;;;;7.44;100.00;99972.59;4993439;28;20843;-70
2022/11/18 08:17:58;;;;;;;10.20;5.47;;;;;;;7.72;100.00;99978.28;4987844;28;20041;-70
2022/11/18 08:20:26;;;;;;;9.40;4.82;;;;;;;8.20;100.00;99987.41;4994214;28;20034;-70
2022/11/18 08:22:51;;;;;;;9.15;4.97;;;;;;;8.44;100.00;99994.59;4985390;28;20042;-70
2022/11/18 08:25:16;;;;;;;9.18;4.35;;;;;;;8.38;100.00;99992.81;4998873;28;20034;-70
2022/11/18 08:27:42;;;;;;;8.55;4.50;;;;;;;8.21;100.00;99994.53;4991269;28;20034;-70
2022/11/18 08:30:08;;;;;;;8.75;4.50;;;;;;;8.06;100.00;99993.09;4991423;28;20022;-71
2022/11/18 08:32:33;;;;;;;10.57;4.60;;;;;;;7.88;100.00;99995.09;4992903;28;20034;-70
2022/11/18 08:34:58;;;;;;;7.55;4.55;;;;;;;7.80;100.00;99998.97;4992591;28;20101;-70
2022/11/18 08:37:23;;;;;;;9.50;4.75;;;;;;;7.79;100.00;100003.59;4989299;28;20072;-70
2022/11/18 08:39:49;;;;;;;9.18;4.75;;;;;;;7.88;100.00;100011.47;4988863;28;20096;-69
2022/11/18 08:42:14;;;;;;;11.48;5.18;;;;;;;7.99;100.00;100008.78;4992905;28;20074;-70
2022/11/18 08:44:39;;;;;;;10.52;5.63;;;;;;;8.03;100.00;100009.16;4993168;28;20041;-70
2022/11/18 08:47:05;;;;;;;15.10;11.30;;;;;;;8.09;100.00;99999.16;4993117;28;20100;-70
2022/11/18 08:49:30;;;;;;;12.38;9.60;;;;;;;8.44;100.00;100012.91;4988331;28;20045;-70
2022/11/18 08:51:55;;;;;;;10.77;5.10;;;;;;;8.98;100.00;100017.19;4990868;28;20053;-70
2022/11/18 08:54:21;;;;;;;8.75;4.43;;;;;;;9.78;99.22;100012.72;4993232;28;20038;-69
2022/11/18 08:56:46;;;;;;;8.98;3.95;;;;;;;10.69;92.36;100002.47;4997765;28;20030;-68
2022/11/18 08:59:11;;;;;;;9.30;4.85;;;;;;;10.78;90.81;100006.47;4998519;28;20476;-68
2022/11/18 09:01:37;;;;;;;8.00;4.88;;;;;;;10.95;88.89;100006.44;4985769;28;20531;-69
2022/11/18 09:04:03;;;;;;;8.75;4.07;;;;;;;10.63;89.27;100015.31;4989265;28;20381;-68
2022/11/18 09:06:28;;;;;;;6.95;4.07;;;;;;;10.22;90.68;100019.28;4985923;28;20033;-68
2022/11/18 09:08:54;;;;;;;8.48;4.05;;;;;;;9.77;92.59;100025.63;4986294;28;20448;-68
2022/11/18 09:11:24;;;;;;;8.05;4.18;;;;;;;9.33;94.81;100030.81;4987756;28;20052;-70
2022/11/18 09:13:55;;;;;;;7.43;3.90;;;;;;;9.10;96.74;100036.31;4989935;28;20042;-69
2022/11/18 09:16:22;;;;;;;10.27;4.40;;;;;;;8.95;97.31;100028.59;4985628;28;20453;-70
2022/11/18 09:18:48;;;;;;;10.68;4.18;;;;;;;8.96;98.54;100040.38;4983767;28;20031;-69
2022/11/18 09:21:13;;;;;;;8.50;4.35;;;;;;;9.00;97.86;100038.84;4984412;28;20026;-70
2022/11/18 09:23:38;;;;;;;9.85;4.68;;;;;;;9.10;97.92;100039.88;4989038;28;20136;-69
2022/11/18 09:26:09;;;;;;;8.70;5.07;;;;;;;9.47;97.12;100052.44;4985465;28;20041;-70
2022/11/18 09:28:35;;;;;;;9.70;4.38;;;;;;;9.98;94.63;100046.00;4988134;28;20030;-70
2022/11/18 09:31:05;;;;;;;10.93;4.60;;;;;;;10.46;93.03;100046.63;5004658;28;20449;-67
2022/11/18 09:33:30;;;;;;;10.55;5.40;;;;;;;11.60;87.21;100037.75;4999878;28;20034;-68
2022/11/18 09:35:56;;;;;;;9.50;4.38;;;;;;;12.35;81.94;100038.81;4991750;28;20495;-68
2022/11/18 09:38:21;;;;;;;8.35;3.80;;;;;;;13.17;77.27;100043.81;4989591;28;20041;-67
2022/11/18 09:41:03;;;;;;;6.65;3.35;;;;;;;13.91;74.14;100045.50;5002560;28;20026;-68
2022/11/18 09:43:49;;;;;;;9.40;4.10;;;;;;;15.14;72.91;100051.06;5004529;28;20117;-67
2022/11/18 09:46:25;;;;;;;7.15;3.78;;;;;;;15.56;66.47;100054.25;5004931;28;20472;-68
2022/11/18 09:51:42;;;;;;;7.97;3.60;;;;;;;12.85;74.55;100076.13;5004490;28;20447;-66
2022/11/18 09:54:12;;;;;;;9.93;3.90;;;;;;;12.26;78.35;100079.75;5006897;28;20026;-66
2022/11/18 09:56:39;;;;;;;8.60;3.85;;;;;;;13.22;76.51;100084.41;5007926;28;20492;-68
2022/11/18 09:59:04;;;;;;;9.77;3.78;;;;;;;14.18;71.93;100083.13;5007488;28;20022;-67
2022/11/18 10:01:30;;;;;;;8.57;3.67;;;;;;;15.29;66.35;100087.00;5007236;28;20506;-67
2022/11/18 10:03:55;;;;;;;8.48;3.75;;;;;;;15.12;65.10;100095.59;5008458;28;20093;-68
2022/11/18 10:06:26;;;;;;;8.95;3.97;;;;;;;14.19;68.97;100102.19;5007083;28;20104;-68
2022/11/18 10:08:58;;;;;;;6.68;3.10;;;;;;;13.03;72.63;100106.06;5005185;28;20496;-67
2022/11/18 10:11:27;;;;;;;7.60;3.40;;;;;;;12.05;77.13;100099.94;5008125;28;20026;-67
2022/11/18 10:14:14;;;;;;;8.15;3.85;;;;;;;11.39;81.04;100103.50;5010444;28;20026;-69
2022/11/18 10:16:46;;;;;;;12.37;4.63;;;;;;;10.96;84.18;100107.00;4996500;28;20025;-69
2022/11/18 10:19:20;;;;;;;6.70;3.63;;;;;;;10.73;86.10;100110.75;4998583;28;20029;-69
2022/11/18 10:22:03;;;;;;;8.00;3.70;;;;;;;10.77;87.06;100108.34;5006898;28;20037;-69
2022/11/18 10:24:38;;;;;;;9.32;3.90;;;;;;;11.08;87.56;100115.16;4991551;28;20595;-67
2022/11/18 10:27:12;;;;;;;9.70;3.60;;;;;;;11.57;84.92;100110.63;5009639;28;20477;-68
2022/11/18 10:29:38;;;;;;;7.68;3.90;;;;;;;11.33;83.83;100118.25;5008599;28;20033;-67
2022/11/18 10:32:09;;;;;;;9.18;3.80;;;;;;;11.10;84.69;100116.56;5009624;28;20037;-68
2022/11/18 10:34:46;;;;;;;13.40;3.92;;;;;;;10.84;86.38;100114.50;5008774;28;20026;-69
2022/11/18 10:37:32;;;;;;;8.60;3.78;;;;;;;10.51;88.15;100134.56;4992103;28;20030;-69
2022/11/18 10:40:00;;;;;;;12.32;4.25;;;;;;;10.46;88.90;100132.53;5000834;28;20026;-69
2022/11/18 10:42:39;;;;;;;13.88;5.05;;;;;;;10.99;87.53;100119.41;5007461;28;20022;-69
2022/11/18 10:45:20;;;;;;;11.05;5.30;;;;;;;11.51;84.98;100130.06;5006265;28;20604;-67
2022/11/18 10:48:22;;;;;;;9.48;3.90;;;;;;;11.73;84.01;100133.66;5004621;28;20358;-68
2022/11/18 10:50:50;;;;;;;8.82;3.63;;;;;;;11.59;84.14;100126.84;5006748;28;20084;-68
2022/11/18 10:53:32;;;;;;;10.73;4.10;;;;;;;11.40;85.49;100132.69;5006880;28;20119;-68
2022/11/18 10:56:00;;;;;;;8.63;3.95;;;;;;;11.11;86.58;100133.91;4993437;28;20027;-68
2022/11/18 10:58:29;;;;;;;11.18;4.00;;;;;;;10.93;86.93;100132.22;4986875;28;20037;-68
2022/11/18 11:01:24;;;;;;;7.40;3.63;;;;;;;10.83;87.53;100143.88;5007304;28;20108;-69
2022/11/18 11:03:59;;;;;;;11.50;3.80;;;;;;;10.78;87.75;100146.53;5004030;28;20096;-68
2022/11/18 11:06:24;;;;;;;8.13;3.47;;;;;;;10.60;88.05;100136.66;4993948;28;20060;-69
2022/11/18 11:08:53;;;;;;;10.13;3.50;;;;;;;10.53;88.46;100146.09;5006822;28;20083;-68
2022/11/18 11:11:35;;;;;;;7.55;3.45;;;;;;;10.63;88.79;100143.53;5006335;28;20050;-68
2022/11/18 11:14:10;;;;;;;8.18;4.00;;;;;;;10.58;88.72;100144.28;4997580;28;20370;-69
2022/11/18 11:16:45;;;;;;;9.77;3.33;;;;;;;10.56;89.07;100151.94;4987253;28;20097;-68
2022/11/18 11:19:12;;;;;;;11.70;4.35;;;;;;;10.50;88.18;100144.72;4987276;28;20022;-68
2022/11/18 11:21:37;;;;;;;9.13;4.90;;;;;;;10.44;88.53;100150.34;5003450;28;20214;-68
2022/11/18 11:24:09;;;;;;;11.63;4.28;;;;;;;10.43;89.61;100155.00;5005378;28;20560;-68
2022/11/18 11:26:47;;;;;;;10.00;3.70;;;;;;;10.50;89.31;100163.94;5006475;28;20032;-68
2022/11/18 11:29:36;;;;;;;8.82;3.42;;;;;;;10.50;89.21;100160.34;5007159;28;20052;-68
2022/11/18 11:32:18;;;;;;;10.68;3.67;;;;;;;10.58;89.90;100162.66;4988914;28;20417;-68
2022/11/18 11:34:54;;;;;;;10.10;3.65;;;;;;;10.60;88.28;100169.59;4988157;28;20370;-68
2022/11/18 11:37:44;;;;;;;12.18;4.15;;;;;;;10.65;89.16;100171.59;4996982;28;20084;-68
2022/11/18 11:40:33;;;;;;;10.20;3.60;;;;;;;10.62;89.30;100163.84;5006077;28;20164;-68
2022/11/18 11:43:16;;;;;;;7.15;3.58;;;;;;;10.58;89.64;100162.66;5006833;28;20031;-68
2022/11/18 11:46:00;;;;;;;10.63;3.90;;;;;;;10.65;89.52;100174.34;4988308;28;20069;-68
2022/11/18 11:48:44;;;;;;;10.43;4.20;;;;;;;10.47;90.10;100175.38;4988116;28;20057;-68
2022/11/18 11:51:26;;;;;;;11.13;4.28;;;;;;;10.49;91.85;100169.66;5000422;28;20483;-68
2022/11/18 11:54:10;;;;;;;10.40;4.20;;;;;;;10.44;92.48;100175.91;5004799;28;20038;-69